sensor_id;sensor_type;location;lat;lon;timestamp;pressure;altitude;pressure_sealevel;temperature;humidity
16613;BME280;8419;52.358;9.752;2023-09-07T00:02:31;101554.00;;;28.12;37.97
16613;BME280;8419;52.358;9.752;2023-09-07T00:05:19;101562.00;;;28.07;38.07
16613;BME280;8419;52.358;9.752;2023-09-07T00:08:05;101558.00;;;28.02;38.18
16613;BME280;8419;52.358;9.752;2023-09-07T00:10:51;101559.00;;;28.04;38.15
16613;BME280;8419;52.358;9.752;2023-09-07T00:13:37;101555.00;;;27.98;38.22
16613;BME280;8419;52.358;9.752;2023-09-07T00:16:22;101560.00;;;27.93;38.33
16613;BME280;8419;52.358;9.752;2023-09-07T00:19:08;101559.00;;;27.91;38.38
16613;BME280;8419;52.358;9.752;2023-09-07T00:21:53;101557.00;;;27.90;38.39
16613;BME280;8419;52.358;9.752;2023-09-07T00:24:38;101554.00;;;27.83;38.53
16613;BME280;8419;52.358;9.752;2023-09-07T00:27:24;101549.00;;;27.79;38.65
16613;BME280;8419;52.358;9.752;2023-09-07T00:30:11;101556.00;;;27.73;38.73
16613;BME280;8419;52.358;9.752;2023-09-07T00:32:58;101555.00;;;27.69;38.84
16613;BME280;8419;52.358;9.752;2023-09-07T00:35:44;101560.00;;;27.67;38.84
16613;BME280;8419;52.358;9.752;2023-09-07T00:38:29;101565.00;;;27.70;38.80
16613;BME280;8419;52.358;9.752;2023-09-07T00:41:15;101564.00;;;27.63;38.96
16613;BME280;8419;52.358;9.752;2023-09-07T00:44:00;101555.00;;;27.60;39.03
16613;BME280;8419;52.358;9.752;2023-09-07T00:46:46;101560.00;;;27.56;39.10
16613;BME280;8419;52.358;9.752;2023-09-07T00:49:32;101562.00;;;27.54;39.15
16613;BME280;8419;52.358;9.752;2023-09-07T00:52:17;101562.00;;;27.54;39.14
16613;BME280;8419;52.358;9.752;2023-09-07T00:55:05;101558.00;;;27.51;39.16
16613;BME280;8419;52.358;9.752;2023-09-07T00:57:51;101559.00;;;27.49;39.22
16613;BME280;8419;52.358;9.752;2023-09-07T01:00:37;101552.00;;;27.45;39.24
16613;BME280;8419;52.358;9.752;2023-09-07T01:03:24;101570.00;;;27.42;39.29
16613;BME280;8419;52.358;9.752;2023-09-07T01:06:15;101557.00;;;27.40;39.31
16613;BME280;8419;52.358;9.752;2023-09-07T01:09:09;101560.00;;;27.40;39.36
16613;BME280;8419;52.358;9.752;2023-09-07T01:11:57;101549.00;;;27.35;39.41
16613;BME280;8419;52.358;9.752;2023-09-07T01:14:43;101550.00;;;27.32;39.43
16613;BME280;8419;52.358;9.752;2023-09-07T01:17:29;101555.00;;;27.30;39.44
16613;BME280;8419;52.358;9.752;2023-09-07T01:20:17;101550.00;;;27.29;39.43
16613;BME280;8419;52.358;9.752;2023-09-07T01:23:06;101554.00;;;27.29;39.43
16613;BME280;8419;52.358;9.752;2023-09-07T01:25:54;101547.00;;;27.25;39.49
16613;BME280;8419;52.358;9.752;2023-09-07T01:28:40;101547.00;;;27.06;39.84
16613;BME280;8419;52.358;9.752;2023-09-07T01:31:26;101542.00;;;27.18;39.61
16613;BME280;8419;52.358;9.752;2023-09-07T01:34:12;101544.00;;;27.14;39.62
16613;BME280;8419;52.358;9.752;2023-09-07T01:36:57;101540.00;;;27.15;39.63
16613;BME280;8419;52.358;9.752;2023-09-07T01:39:44;101545.00;;;27.18;39.56
16613;BME280;8419;52.358;9.752;2023-09-07T01:42:29;101539.00;;;27.11;39.64
16613;BME280;8419;52.358;9.752;2023-09-07T01:45:15;101536.00;;;27.08;39.67
16613;BME280;8419;52.358;9.752;2023-09-07T01:48:00;101538.00;;;27.06;39.74
16613;BME280;8419;52.358;9.752;2023-09-07T01:50:45;101539.00;;;27.01;39.81
16613;BME280;8419;52.358;9.752;2023-09-07T01:53:31;101528.00;;;27.00;39.84
16613;BME280;8419;52.358;9.752;2023-09-07T01:56:17;101537.00;;;26.97;39.88
16613;BME280;8419;52.358;9.752;2023-09-07T01:59:02;101546.00;;;26.96;39.88
16613;BME280;8419;52.358;9.752;2023-09-07T02:01:48;101540.00;;;26.92;39.93
16613;BME280;8419;52.358;9.752;2023-09-07T02:04:33;101540.00;;;26.87;40.01
16613;BME280;8419;52.358;9.752;2023-09-07T02:07:19;101545.00;;;26.85;40.04
16613;BME280;8419;52.358;9.752;2023-09-07T02:10:07;101545.00;;;26.82;40.11
16613;BME280;8419;52.358;9.752;2023-09-07T02:12:54;101547.00;;;26.77;40.20
16613;BME280;8419;52.358;9.752;2023-09-07T02:15:42;101544.00;;;26.75;40.19
16613;BME280;8419;52.358;9.752;2023-09-07T02:18:27;101542.00;;;26.67;40.30
16613;BME280;8419;52.358;9.752;2023-09-07T02:21:13;101545.00;;;26.65;40.36
16613;BME280;8419;52.358;9.752;2023-09-07T02:23:58;101549.00;;;26.62;40.38
16613;BME280;8419;52.358;9.752;2023-09-07T02:26:44;101548.00;;;26.60;40.42
16613;BME280;8419;52.358;9.752;2023-09-07T02:29:30;101552.00;;;26.58;40.45
16613;BME280;8419;52.358;9.752;2023-09-07T02:32:15;101550.00;;;26.58;40.45
16613;BME280;8419;52.358;9.752;2023-09-07T02:35:03;101546.00;;;26.54;40.46
16613;BME280;8419;52.358;9.752;2023-09-07T02:37:49;101551.00;;;26.53;40.46
16613;BME280;8419;52.358;9.752;2023-09-07T02:40:41;101549.00;;;26.49;40.53
16613;BME280;8419;52.358;9.752;2023-09-07T02:43:27;101553.00;;;26.47;40.57
16613;BME280;8419;52.358;9.752;2023-09-07T02:46:12;101557.00;;;26.44;40.54
16613;BME280;8419;52.358;9.752;2023-09-07T02:48:58;101556.00;;;26.42;40.57
16613;BME280;8419;52.358;9.752;2023-09-07T02:51:43;101550.00;;;26.40;40.61
16613;BME280;8419;52.358;9.752;2023-09-07T02:54:29;101555.00;;;26.38;40.66
16613;BME280;8419;52.358;9.752;2023-09-07T02:57:15;101559.00;;;26.34;40.73
16613;BME280;8419;52.358;9.752;2023-09-07T03:00:00;101555.00;;;26.35;40.70
16613;BME280;8419;52.358;9.752;2023-09-07T03:02:52;101555.00;;;26.30;40.77
16613;BME280;8419;52.358;9.752;2023-09-07T03:05:39;101551.00;;;26.26;40.81
16613;BME280;8419;52.358;9.752;2023-09-07T03:08:25;101551.00;;;26.17;41.02
16613;BME280;8419;52.358;9.752;2023-09-07T03:11:11;101546.00;;;26.17;40.98
16613;BME280;8419;52.358;9.752;2023-09-07T03:13:56;101555.00;;;26.17;40.97
16613;BME280;8419;52.358;9.752;2023-09-07T03:16:41;101544.00;;;26.17;40.91
16613;BME280;8419;52.358;9.752;2023-09-07T03:19:27;101555.00;;;26.19;40.92
16613;BME280;8419;52.358;9.752;2023-09-07T03:22:13;101557.00;;;26.15;40.92
16613;BME280;8419;52.358;9.752;2023-09-07T03:25:00;101560.00;;;26.13;40.98
16613;BME280;8419;52.358;9.752;2023-09-07T03:27:45;101553.00;;;26.11;41.02
16613;BME280;8419;52.358;9.752;2023-09-07T03:30:33;101558.00;;;26.08;41.01
16613;BME280;8419;52.358;9.752;2023-09-07T03:33:20;101552.00;;;26.07;41.03
16613;BME280;8419;52.358;9.752;2023-09-07T03:36:05;101557.00;;;26.05;41.04
16613;BME280;8419;52.358;9.752;2023-09-07T03:38:52;101554.00;;;26.05;41.06
16613;BME280;8419;52.358;9.752;2023-09-07T03:41:38;101559.00;;;26.00;41.12
16613;BME280;8419;52.358;9.752;2023-09-07T03:44:23;101553.00;;;25.95;41.22
16613;BME280;8419;52.358;9.752;2023-09-07T03:47:11;101553.00;;;25.90;41.25
16613;BME280;8419;52.358;9.752;2023-09-07T03:49:58;101547.00;;;25.90;41.31
16613;BME280;8419;52.358;9.752;2023-09-07T03:52:44;101546.00;;;25.86;41.33
16613;BME280;8419;52.358;9.752;2023-09-07T03:55:29;101556.00;;;25.85;41.34
16613;BME280;8419;52.358;9.752;2023-09-07T03:58:15;101563.00;;;25.79;41.48
16613;BME280;8419;52.358;9.752;2023-09-07T04:01:01;101558.00;;;25.77;41.47
16613;BME280;8419;52.358;9.752;2023-09-07T04:03:48;101557.00;;;25.73;41.53
16613;BME280;8419;52.358;9.752;2023-09-07T04:06:33;101562.00;;;25.67;41.60
16613;BME280;8419;52.358;9.752;2023-09-07T04:09:18;101564.00;;;25.66;41.63
16613;BME280;8419;52.358;9.752;2023-09-07T04:12:07;101563.00;;;25.65;41.63
16613;BME280;8419;52.358;9.752;2023-09-07T04:14:52;101567.00;;;25.66;41.61
16613;BME280;8419;52.358;9.752;2023-09-07T04:17:38;101561.00;;;25.61;41.65
16613;BME280;8419;52.358;9.752;2023-09-07T04:20:25;101562.00;;;25.60;41.67
16613;BME280;8419;52.358;9.752;2023-09-07T04:23:13;101568.00;;;25.57;41.71
16613;BME280;8419;52.358;9.752;2023-09-07T04:26:06;101562.00;;;25.52;41.78
16613;BME280;8419;52.358;9.752;2023-09-07T04:28:52;101568.00;;;25.48;41.91
16613;BME280;8419;52.358;9.752;2023-09-07T04:31:38;101567.00;;;25.47;41.86
16613;BME280;8419;52.358;9.752;2023-09-07T04:34:24;101565.00;;;25.44;41.88
16613;BME280;8419;52.358;9.752;2023-09-07T04:37:09;101570.00;;;25.45;41.86
16613;BME280;8419;52.358;9.752;2023-09-07T04:39:55;101570.00;;;25.47;41.83
16613;BME280;8419;52.358;9.752;2023-09-07T04:42:41;101572.00;;;25.47;41.82
16613;BME280;8419;52.358;9.752;2023-09-07T04:45:26;101577.00;;;25.46;41.83
16613;BME280;8419;52.358;9.752;2023-09-07T04:48:12;101577.00;;;25.48;41.85
16613;BME280;8419;52.358;9.752;2023-09-07T04:51:01;101578.00;;;25.44;41.92
16613;BME280;8419;52.358;9.752;2023-09-07T04:53:48;101575.00;;;25.44;41.98
16613;BME280;8419;52.358;9.752;2023-09-07T04:56:34;101574.00;;;25.45;41.91
16613;BME280;8419;52.358;9.752;2023-09-07T04:59:21;101587.00;;;25.46;41.93
16613;BME280;8419;52.358;9.752;2023-09-07T05:02:06;101579.00;;;25.44;41.94
16613;BME280;8419;52.358;9.752;2023-09-07T05:04:52;101573.00;;;25.44;41.96
16613;BME280;8419;52.358;9.752;2023-09-07T05:07:37;101581.00;;;25.43;41.98
16613;BME280;8419;52.358;9.752;2023-09-07T05:10:23;101582.00;;;25.43;42.00
16613;BME280;8419;52.358;9.752;2023-09-07T05:13:09;101588.00;;;25.47;41.96
16613;BME280;8419;52.358;9.752;2023-09-07T05:15:55;101583.00;;;25.47;41.96
16613;BME280;8419;52.358;9.752;2023-09-07T05:18:41;101576.00;;;25.46;42.00
16613;BME280;8419;52.358;9.752;2023-09-07T05:21:29;101578.00;;;25.45;42.00
16613;BME280;8419;52.358;9.752;2023-09-07T05:24:14;101578.00;;;25.52;41.93
16613;BME280;8419;52.358;9.752;2023-09-07T05:27:00;101576.00;;;25.49;41.99
16613;BME280;8419;52.358;9.752;2023-09-07T05:29:46;101588.00;;;25.47;42.03
16613;BME280;8419;52.358;9.752;2023-09-07T05:32:31;101581.00;;;25.46;42.07
16613;BME280;8419;52.358;9.752;2023-09-07T05:35:17;101578.00;;;25.47;42.03
16613;BME280;8419;52.358;9.752;2023-09-07T05:38:03;101578.00;;;25.50;42.03
16613;BME280;8419;52.358;9.752;2023-09-07T05:40:49;101588.00;;;25.53;41.99
16613;BME280;8419;52.358;9.752;2023-09-07T05:43:39;101584.00;;;25.54;41.99
16613;BME280;8419;52.358;9.752;2023-09-07T05:46:25;101581.00;;;25.57;41.94
16613;BME280;8419;52.358;9.752;2023-09-07T05:49:10;101577.00;;;25.59;41.89
16613;BME280;8419;52.358;9.752;2023-09-07T05:51:56;101589.00;;;25.63;41.82
16613;BME280;8419;52.358;9.752;2023-09-07T05:54:41;101591.00;;;25.66;41.79
16613;BME280;8419;52.358;9.752;2023-09-07T05:57:28;101587.00;;;25.70;41.79
16613;BME280;8419;52.358;9.752;2023-09-07T06:00:14;101592.00;;;25.74;41.78
16613;BME280;8419;52.358;9.752;2023-09-07T06:03:02;101596.00;;;25.75;41.74
16613;BME280;8419;52.358;9.752;2023-09-07T06:05:50;101596.00;;;25.74;41.80
16613;BME280;8419;52.358;9.752;2023-09-07T06:08:35;101600.00;;;25.74;41.83
16613;BME280;8419;52.358;9.752;2023-09-07T06:11:21;101591.00;;;25.78;41.79
16613;BME280;8419;52.358;9.752;2023-09-07T06:14:06;101599.00;;;25.89;41.61
16613;BME280;8419;52.358;9.752;2023-09-07T06:16:52;101595.00;;;25.99;41.47
16613;BME280;8419;52.358;9.752;2023-09-07T06:19:37;101600.00;;;26.08;41.28
16613;BME280;8419;52.358;9.752;2023-09-07T06:22:24;101597.00;;;25.97;41.54
16613;BME280;8419;52.358;9.752;2023-09-07T06:25:10;101606.00;;;26.12;41.33
16613;BME280;8419;52.358;9.752;2023-09-07T06:27:56;101610.00;;;26.18;41.23
16613;BME280;8419;52.358;9.752;2023-09-07T06:30:44;101619.00;;;26.21;41.22
16613;BME280;8419;52.358;9.752;2023-09-07T06:33:30;101616.00;;;26.25;41.21
16613;BME280;8419;52.358;9.752;2023-09-07T06:36:15;101615.00;;;26.29;41.15
16613;BME280;8419;52.358;9.752;2023-09-07T06:39:01;101615.00;;;26.30;41.16
16613;BME280;8419;52.358;9.752;2023-09-07T06:41:47;101620.00;;;26.37;41.08
16613;BME280;8419;52.358;9.752;2023-09-07T06:44:34;101619.00;;;26.41;41.07
16613;BME280;8419;52.358;9.752;2023-09-07T06:47:20;101616.00;;;26.45;41.04
16613;BME280;8419;52.358;9.752;2023-09-07T06:50:07;101612.00;;;26.51;40.97
16613;BME280;8419;52.358;9.752;2023-09-07T06:52:53;101619.00;;;26.62;40.83
16613;BME280;8419;52.358;9.752;2023-09-07T06:55:41;101622.00;;;26.67;40.80
16613;BME280;8419;52.358;9.752;2023-09-07T06:58:26;101622.00;;;26.73;40.74
16613;BME280;8419;52.358;9.752;2023-09-07T07:01:12;101625.00;;;26.81;40.70
16613;BME280;8419;52.358;9.752;2023-09-07T07:03:58;101626.00;;;26.85;40.67
16613;BME280;8419;52.358;9.752;2023-09-07T07:06:44;101622.00;;;26.92;40.58
16613;BME280;8419;52.358;9.752;2023-09-07T07:09:30;101620.00;;;26.98;40.55
16613;BME280;8419;52.358;9.752;2023-09-07T07:12:16;101624.00;;;27.03;40.54
16613;BME280;8419;52.358;9.752;2023-09-07T07:15:02;101622.00;;;27.09;40.43
16613;BME280;8419;52.358;9.752;2023-09-07T07:17:48;101626.00;;;27.05;40.56
16613;BME280;8419;52.358;9.752;2023-09-07T07:20:34;101619.00;;;27.22;40.24
16613;BME280;8419;52.358;9.752;2023-09-07T07:23:19;101613.00;;;27.26;40.19
16613;BME280;8419;52.358;9.752;2023-09-07T07:26:04;101619.00;;;27.29;40.17
16613;BME280;8419;52.358;9.752;2023-09-07T07:28:50;101624.00;;;27.34;40.12
16613;BME280;8419;52.358;9.752;2023-09-07T07:31:36;101618.00;;;27.42;40.05
16613;BME280;8419;52.358;9.752;2023-09-07T07:34:22;101624.00;;;27.52;39.93
16613;BME280;8419;52.358;9.752;2023-09-07T07:37:08;101621.00;;;27.58;39.89
16613;BME280;8419;52.358;9.752;2023-09-07T07:39:54;101621.00;;;27.63;39.84
16613;BME280;8419;52.358;9.752;2023-09-07T07:42:42;101618.00;;;27.72;39.72
16613;BME280;8419;52.358;9.752;2023-09-07T07:45:27;101618.00;;;27.82;39.60
16613;BME280;8419;52.358;9.752;2023-09-07T07:48:13;101620.00;;;27.91;39.57
16613;BME280;8419;52.358;9.752;2023-09-07T07:51:04;101631.00;;;27.98;39.54
16613;BME280;8419;52.358;9.752;2023-09-07T07:53:50;101626.00;;;28.11;39.41
16613;BME280;8419;52.358;9.752;2023-09-07T07:56:38;101622.00;;;28.21;39.34
16613;BME280;8419;52.358;9.752;2023-09-07T07:59:23;101621.00;;;28.35;39.17
16613;BME280;8419;52.358;9.752;2023-09-07T08:02:09;101623.00;;;28.42;39.11
16613;BME280;8419;52.358;9.752;2023-09-07T08:04:55;101620.00;;;28.51;38.98
16613;BME280;8419;52.358;9.752;2023-09-07T08:07:41;101623.00;;;28.65;38.87
16613;BME280;8419;52.358;9.752;2023-09-07T08:10:27;101621.00;;;28.80;38.71
16613;BME280;8419;52.358;9.752;2023-09-07T08:13:13;101618.00;;;28.92;38.54
16613;BME280;8419;52.358;9.752;2023-09-07T08:15:58;101620.00;;;29.04;38.42
16613;BME280;8419;52.358;9.752;2023-09-07T08:18:44;101614.00;;;29.11;38.39
16613;BME280;8419;52.358;9.752;2023-09-07T08:21:30;101614.00;;;29.21;38.29
16613;BME280;8419;52.358;9.752;2023-09-07T08:24:16;101615.00;;;29.31;38.20
16613;BME280;8419;52.358;9.752;2023-09-07T08:27:01;101609.00;;;29.44;38.03
16613;BME280;8419;52.358;9.752;2023-09-07T08:29:47;101612.00;;;29.56;37.94
16613;BME280;8419;52.358;9.752;2023-09-07T08:32:38;101610.00;;;29.67;37.85
16613;BME280;8419;52.358;9.752;2023-09-07T08:35:23;101613.00;;;29.79;37.83
16613;BME280;8419;52.358;9.752;2023-09-07T08:38:12;101614.00;;;29.96;37.54
16613;BME280;8419;52.358;9.752;2023-09-07T08:41:01;101612.00;;;30.04;37.45
16613;BME280;8419;52.358;9.752;2023-09-07T08:43:49;101618.00;;;30.16;37.36
16613;BME280;8419;52.358;9.752;2023-09-07T08:46:37;101618.00;;;30.26;37.22
16613;BME280;8419;52.358;9.752;2023-09-07T08:49:25;101612.00;;;30.37;37.06
16613;BME280;8419;52.358;9.752;2023-09-07T08:52:14;101620.00;;;30.55;36.89
16613;BME280;8419;52.358;9.752;2023-09-07T08:55:00;101619.00;;;30.64;36.72
16613;BME280;8419;52.358;9.752;2023-09-07T08:57:49;101617.00;;;30.79;36.49
16613;BME280;8419;52.358;9.752;2023-09-07T09:00:36;101624.00;;;30.90;36.32
16613;BME280;8419;52.358;9.752;2023-09-07T09:03:23;101621.00;;;31.01;36.22
16613;BME280;8419;52.358;9.752;2023-09-07T09:06:09;101620.00;;;31.14;36.07
16613;BME280;8419;52.358;9.752;2023-09-07T09:08:56;101613.00;;;31.27;35.87
16613;BME280;8419;52.358;9.752;2023-09-07T09:11:42;101605.00;;;31.34;35.77
16613;BME280;8419;52.358;9.752;2023-09-07T09:14:31;101620.00;;;31.56;35.50
16613;BME280;8419;52.358;9.752;2023-09-07T09:17:18;101611.00;;;31.70;35.31
16613;BME280;8419;52.358;9.752;2023-09-07T09:20:19;101611.00;;;31.86;35.00
16613;BME280;8419;52.358;9.752;2023-09-07T09:23:04;101613.00;;;32.01;34.81
16613;BME280;8419;52.358;9.752;2023-09-07T09:25:52;101610.00;;;32.19;34.58
16613;BME280;8419;52.358;9.752;2023-09-07T09:28:37;101612.00;;;32.33;34.38
16613;BME280;8419;52.358;9.752;2023-09-07T09:31:24;101611.00;;;32.52;34.05
16613;BME280;8419;52.358;9.752;2023-09-07T09:34:12;101612.00;;;32.63;33.84
16613;BME280;8419;52.358;9.752;2023-09-07T09:36:57;101606.00;;;32.82;33.54
16613;BME280;8419;52.358;9.752;2023-09-07T09:39:44;101603.00;;;32.93;33.36
16613;BME280;8419;52.358;9.752;2023-09-07T09:42:34;101604.00;;;33.04;33.19
16613;BME280;8419;52.358;9.752;2023-09-07T09:45:20;101605.00;;;33.14;32.96
16613;BME280;8419;52.358;9.752;2023-09-07T09:48:07;101606.00;;;33.21;32.84
16613;BME280;8419;52.358;9.752;2023-09-07T09:50:54;101595.00;;;33.34;32.68
16613;BME280;8419;52.358;9.752;2023-09-07T09:53:40;101597.00;;;33.49;32.46
16613;BME280;8419;52.358;9.752;2023-09-07T09:56:26;101599.00;;;33.61;32.28
16613;BME280;8419;52.358;9.752;2023-09-07T09:59:13;101595.00;;;33.74;32.21
16613;BME280;8419;52.358;9.752;2023-09-07T10:01:59;101595.00;;;33.87;32.05
16613;BME280;8419;52.358;9.752;2023-09-07T10:04:51;101588.00;;;33.91;31.98
16613;BME280;8419;52.358;9.752;2023-09-07T10:07:43;101587.00;;;34.03;31.88
16613;BME280;8419;52.358;9.752;2023-09-07T10:10:34;101586.00;;;34.06;31.82
16613;BME280;8419;52.358;9.752;2023-09-07T10:13:30;101587.00;;;34.20;31.64
16613;BME280;8419;52.358;9.752;2023-09-07T10:16:15;101581.00;;;34.24;31.59
16613;BME280;8419;52.358;9.752;2023-09-07T10:19:01;101582.00;;;34.32;31.42
16613;BME280;8419;52.358;9.752;2023-09-07T10:21:48;101573.00;;;34.43;31.25
16613;BME280;8419;52.358;9.752;2023-09-07T10:24:39;101581.00;;;34.41;31.22
16613;BME280;8419;52.358;9.752;2023-09-07T10:27:37;101576.00;;;34.55;31.05
16613;BME280;8419;52.358;9.752;2023-09-07T10:30:23;101575.00;;;34.64;30.93
16613;BME280;8419;52.358;9.752;2023-09-07T10:33:20;101574.00;;;34.70;30.79
16613;BME280;8419;52.358;9.752;2023-09-07T10:36:06;101570.00;;;34.80;30.70
16613;BME280;8419;52.358;9.752;2023-09-07T10:38:53;101568.00;;;34.86;30.60
16613;BME280;8419;52.358;9.752;2023-09-07T10:41:42;101563.00;;;34.93;30.46
16613;BME280;8419;52.358;9.752;2023-09-07T10:44:29;101568.00;;;35.01;30.14
16613;BME280;8419;52.358;9.752;2023-09-07T10:47:15;101574.00;;;35.06;30.04
16613;BME280;8419;52.358;9.752;2023-09-07T10:50:01;101568.00;;;35.09;30.03
16613;BME280;8419;52.358;9.752;2023-09-07T10:52:48;101567.00;;;35.15;29.93
16613;BME280;8419;52.358;9.752;2023-09-07T10:55:37;101560.00;;;35.14;29.90
16613;BME280;8419;52.358;9.752;2023-09-07T10:58:29;101562.00;;;35.22;29.73
16613;BME280;8419;52.358;9.752;2023-09-07T11:01:15;101555.00;;;35.31;29.61
16613;BME280;8419;52.358;9.752;2023-09-07T11:04:00;101554.00;;;35.37;29.43
16613;BME280;8419;52.358;9.752;2023-09-07T11:06:46;101557.00;;;35.34;29.22
16613;BME280;8419;52.358;9.752;2023-09-07T11:09:32;101544.00;;;35.51;29.15
16613;BME280;8419;52.358;9.752;2023-09-07T11:12:20;101543.00;;;35.63;28.97
16613;BME280;8419;52.358;9.752;2023-09-07T11:15:10;101535.00;;;35.72;28.87
16613;BME280;8419;52.358;9.752;2023-09-07T11:17:56;101541.00;;;35.79;28.80
16613;BME280;8419;52.358;9.752;2023-09-07T11:20:42;101537.00;;;35.86;28.81
16613;BME280;8419;52.358;9.752;2023-09-07T11:23:30;101534.00;;;35.94;28.62
16613;BME280;8419;52.358;9.752;2023-09-07T11:26:22;101530.00;;;36.05;28.41
16613;BME280;8419;52.358;9.752;2023-09-07T11:29:08;101529.00;;;36.18;28.21
16613;BME280;8419;52.358;9.752;2023-09-07T11:31:54;101531.00;;;36.16;28.24
16613;BME280;8419;52.358;9.752;2023-09-07T11:34:48;101533.00;;;36.27;28.12
16613;BME280;8419;52.358;9.752;2023-09-07T11:37:35;101526.00;;;36.39;28.04
16613;BME280;8419;52.358;9.752;2023-09-07T11:40:20;101530.00;;;36.55;27.77
16613;BME280;8419;52.358;9.752;2023-09-07T11:43:06;101529.00;;;36.79;27.41
16613;BME280;8419;52.358;9.752;2023-09-07T11:45:51;101520.00;;;37.05;27.23
16613;BME280;8419;52.358;9.752;2023-09-07T11:48:37;101522.00;;;37.33;26.99
16613;BME280;8419;52.358;9.752;2023-09-07T11:51:23;101510.00;;;37.62;26.66
16613;BME280;8419;52.358;9.752;2023-09-07T11:54:08;101523.00;;;37.89;26.26
16613;BME280;8419;52.358;9.752;2023-09-07T11:56:55;101516.00;;;38.22;25.82
16613;BME280;8419;52.358;9.752;2023-09-07T11:59:40;101520.00;;;38.33;25.79
16613;BME280;8419;52.358;9.752;2023-09-07T12:02:26;101519.00;;;38.48;25.59
16613;BME280;8419;52.358;9.752;2023-09-07T12:05:11;101511.00;;;38.93;25.11
16613;BME280;8419;52.358;9.752;2023-09-07T12:07:59;101506.00;;;39.16;24.82
16613;BME280;8419;52.358;9.752;2023-09-07T12:10:45;101505.00;;;39.44;24.30
16613;BME280;8419;52.358;9.752;2023-09-07T12:13:32;101503.00;;;39.67;23.88
16613;BME280;8419;52.358;9.752;2023-09-07T12:16:18;101504.00;;;39.95;23.51
16613;BME280;8419;52.358;9.752;2023-09-07T12:19:04;101499.00;;;40.31;23.10
16613;BME280;8419;52.358;9.752;2023-09-07T12:21:50;101507.00;;;40.64;22.87
16613;BME280;8419;52.358;9.752;2023-09-07T12:24:36;101498.00;;;40.91;22.35
16613;BME280;8419;52.358;9.752;2023-09-07T12:27:22;101500.00;;;41.10;22.07
16613;BME280;8419;52.358;9.752;2023-09-07T12:30:09;101493.00;;;41.49;21.61
16613;BME280;8419;52.358;9.752;2023-09-07T12:32:57;101497.00;;;41.75;21.26
16613;BME280;8419;52.358;9.752;2023-09-07T12:35:44;101492.00;;;42.11;20.77
16613;BME280;8419;52.358;9.752;2023-09-07T12:38:30;101493.00;;;42.54;20.30
16613;BME280;8419;52.358;9.752;2023-09-07T12:41:15;101487.00;;;42.81;20.04
16613;BME280;8419;52.358;9.752;2023-09-07T12:44:02;101490.00;;;43.06;19.73
16613;BME280;8419;52.358;9.752;2023-09-07T12:46:48;101482.00;;;43.18;19.45
16613;BME280;8419;52.358;9.752;2023-09-07T12:49:34;101489.00;;;42.99;19.51
16613;BME280;8419;52.358;9.752;2023-09-07T12:52:20;101485.00;;;42.67;19.64
16613;BME280;8419;52.358;9.752;2023-09-07T12:55:07;101471.00;;;42.20;19.87
16613;BME280;8419;52.358;9.752;2023-09-07T12:57:52;101473.00;;;41.94;19.99
16613;BME280;8419;52.358;9.752;2023-09-07T13:00:38;101471.00;;;41.56;20.13
16613;BME280;8419;52.358;9.752;2023-09-07T13:03:26;101467.00;;;41.29;20.28
16613;BME280;8419;52.358;9.752;2023-09-07T13:06:12;101463.00;;;41.15;20.35
16613;BME280;8419;52.358;9.752;2023-09-07T13:08:59;101450.00;;;40.87;20.63
16613;BME280;8419;52.358;9.752;2023-09-07T13:11:46;101454.00;;;40.83;20.78
16613;BME280;8419;52.358;9.752;2023-09-07T13:14:31;101454.00;;;40.69;21.02
16613;BME280;8419;52.358;9.752;2023-09-07T13:17:17;101455.00;;;40.66;21.12
16613;BME280;8419;52.358;9.752;2023-09-07T13:20:05;101460.00;;;40.61;21.22
16613;BME280;8419;52.358;9.752;2023-09-07T13:22:52;101450.00;;;40.62;21.24
16613;BME280;8419;52.358;9.752;2023-09-07T13:25:38;101444.00;;;40.56;21.36
16613;BME280;8419;52.358;9.752;2023-09-07T13:28:24;101444.00;;;40.43;21.60
16613;BME280;8419;52.358;9.752;2023-09-07T13:31:10;101438.00;;;40.43;21.55
16613;BME280;8419;52.358;9.752;2023-09-07T13:33:55;101445.00;;;40.52;21.30
16613;BME280;8419;52.358;9.752;2023-09-07T13:36:41;101440.00;;;40.72;21.03
16613;BME280;8419;52.358;9.752;2023-09-07T13:39:27;101442.00;;;40.80;20.81
16613;BME280;8419;52.358;9.752;2023-09-07T13:42:12;101442.00;;;40.78;20.64
16613;BME280;8419;52.358;9.752;2023-09-07T13:44:58;101433.00;;;40.78;20.39
16613;BME280;8419;52.358;9.752;2023-09-07T13:47:44;101437.00;;;41.07;20.05
16613;BME280;8419;52.358;9.752;2023-09-07T13:50:30;101440.00;;;41.41;19.66
16613;BME280;8419;52.358;9.752;2023-09-07T13:53:15;101443.00;;;41.20;19.79
16613;BME280;8419;52.358;9.752;2023-09-07T13:56:01;101444.00;;;40.99;19.96
16613;BME280;8419;52.358;9.752;2023-09-07T13:58:47;101441.00;;;41.15;19.81
16613;BME280;8419;52.358;9.752;2023-09-07T14:01:33;101439.00;;;41.02;19.90
16613;BME280;8419;52.358;9.752;2023-09-07T14:04:18;101433.00;;;40.79;20.09
16613;BME280;8419;52.358;9.752;2023-09-07T14:07:04;101427.00;;;40.69;20.19
16613;BME280;8419;52.358;9.752;2023-09-07T14:09:53;101431.00;;;40.62;20.23
16613;BME280;8419;52.358;9.752;2023-09-07T14:12:40;101429.00;;;40.32;20.43
16613;BME280;8419;52.358;9.752;2023-09-07T14:15:27;101418.00;;;40.27;20.40
16613;BME280;8419;52.358;9.752;2023-09-07T14:18:14;101415.00;;;40.12;20.55
16613;BME280;8419;52.358;9.752;2023-09-07T14:20:59;101425.00;;;39.96;20.60
16613;BME280;8419;52.358;9.752;2023-09-07T14:23:48;101418.00;;;39.75;20.76
16613;BME280;8419;52.358;9.752;2023-09-07T14:26:33;101415.00;;;39.89;20.65
16613;BME280;8419;52.358;9.752;2023-09-07T14:29:19;101414.00;;;40.58;19.99
16613;BME280;8419;52.358;9.752;2023-09-07T14:32:05;101423.00;;;41.02;19.47
16613;BME280;8419;52.358;9.752;2023-09-07T14:34:50;101407.00;;;41.16;19.25
16613;BME280;8419;52.358;9.752;2023-09-07T14:37:36;101404.00;;;40.94;19.39
16613;BME280;8419;52.358;9.752;2023-09-07T14:40:23;101410.00;;;40.72;19.63
16613;BME280;8419;52.358;9.752;2023-09-07T14:43:12;101405.00;;;40.53;19.87